sensor_id;sensor_type;location;lat;lon;timestamp;pressure;altitude;pressure_sealevel;temperature;humidity
9672;BME280;4874;43.568;27.824;2022-09-03T00:02:01;98721.41;;;20.74;100.00
9672;BME280;4874;43.568;27.824;2022-09-03T00:04:38;98724.44;;;20.53;100.00
9672;BME280;4874;43.568;27.824;2022-09-03T00:07:27;98718.13;;;21.17;100.00
9672;BME280;4874;43.568;27.824;2022-09-03T00:09:59;98710.06;;;21.66;100.00
9672;BME280;4874;43.568;27.824;2022-09-03T00:12:32;98703.03;;;21.58;100.00
9672;BME280;4874;43.568;27.824;2022-09-03T00:15:09;98702.16;;;21.15;100.00
9672;BME280;4874;43.568;27.824;2022-09-03T00:20:18;98686.78;;;20.71;100.00
9672;BME280;4874;43.568;27.824;2022-09-03T00:22:52;98692.22;;;20.65;100.00
9672;BME280;4874;43.568;27.824;2022-09-03T00:25:33;98655.28;;;21.03;100.00
9672;BME280;4874;43.568;27.824;2022-09-03T00:28:07;98678.19;;;21.25;100.00
9672;BME280;4874;43.568;27.824;2022-09-03T00:30:40;98663.41;;;21.52;100.00
9672;BME280;4874;43.568;27.824;2022-09-03T00:33:12;98677.22;;;21.38;100.00
9672;BME280;4874;43.568;27.824;2022-09-03T00:36:11;98673.75;;;21.06;100.00
9672;BME280;4874;43.568;27.824;2022-09-03T00:38:33;98671.97;;;20.49;100.00
9672;BME280;4874;43.568;27.824;2022-09-03T00:55:17;98700.94;;;19.83;100.00
9672;BME280;4874;43.568;27.824;2022-09-03T01:00:18;98703.59;;;20.10;100.00
9672;BME280;4874;43.568;27.824;2022-09-03T01:12:00;98715.44;;;19.89;100.00
9672;BME280;4874;43.568;27.824;2022-09-03T01:14:58;98719.00;;;19.57;100.00
9672;BME280;4874;43.568;27.824;2022-09-03T01:17:55;98741.34;;;19.77;100.00
9672;BME280;4874;43.568;27.824;2022-09-03T01:20:32;98734.09;;;20.17;100.00
9672;BME280;4874;43.568;27.824;2022-09-03T01:26:15;98730.16;;;19.67;100.00
9672;BME280;4874;43.568;27.824;2022-09-03T01:29:06;98728.28;;;19.28;100.00
9672;BME280;4874;43.568;27.824;2022-09-03T01:40:50;98742.75;;;19.21;100.00
9672;BME280;4874;43.568;27.824;2022-09-03T01:43:16;98736.81;;;19.77;100.00
9672;BME280;4874;43.568;27.824;2022-09-03T01:45:59;98708.97;;;18.99;100.00
9672;BME280;4874;43.568;27.824;2022-09-03T01:48:55;98718.16;;;19.43;100.00
9672;BME280;4874;43.568;27.824;2022-09-03T01:51:27;98726.03;;;19.45;100.00
9672;BME280;4874;43.568;27.824;2022-09-03T01:59:38;98706.28;;;19.12;100.00
9672;BME280;4874;43.568;27.824;2022-09-03T02:02:30;98720.94;;;18.90;100.00
9672;BME280;4874;43.568;27.824;2022-09-03T02:10:07;98742.09;;;19.06;100.00
9672;BME280;4874;43.568;27.824;2022-09-03T02:12:35;98715.63;;;19.22;100.00
9672;BME280;4874;43.568;27.824;2022-09-03T02:15:12;98744.47;;;18.68;100.00
9672;BME280;4874;43.568;27.824;2022-09-03T02:17:40;98737.84;;;18.77;100.00
9672;BME280;4874;43.568;27.824;2022-09-03T02:20:12;98736.97;;;18.63;100.00
9672;BME280;4874;43.568;27.824;2022-09-03T02:22:42;98730.66;;;18.91;100.00
9672;BME280;4874;43.568;27.824;2022-09-03T02:25:09;98726.41;;;18.55;100.00
9672;BME280;4874;43.568;27.824;2022-09-03T02:27:39;98726.69;;;18.39;100.00
9672;BME280;4874;43.568;27.824;2022-09-03T02:30:07;98716.38;;;18.02;100.00
9672;BME280;4874;43.568;27.824;2022-09-03T02:32:34;98674.78;;;18.32;100.00
9672;BME280;4874;43.568;27.824;2022-09-03T02:35:01;98711.88;;;18.43;100.00
9672;BME280;4874;43.568;27.824;2022-09-03T02:37:28;98719.88;;;18.91;100.00
9672;BME280;4874;43.568;27.824;2022-09-03T02:39:54;98724.53;;;19.16;100.00
9672;BME280;4874;43.568;27.824;2022-09-03T02:42:21;98729.22;;;18.88;100.00
9672;BME280;4874;43.568;27.824;2022-09-03T02:44:52;98727.25;;;19.42;100.00
9672;BME280;4874;43.568;27.824;2022-09-03T02:47:22;98730.31;;;19.20;100.00
9672;BME280;4874;43.568;27.824;2022-09-03T02:49:50;98719.00;;;18.70;100.00
9672;BME280;4874;43.568;27.824;2022-09-03T02:52:17;98730.91;;;18.96;100.00
9672;BME280;4874;43.568;27.824;2022-09-03T02:54:44;98725.03;;;18.72;100.00
9672;BME280;4874;43.568;27.824;2022-09-03T02:57:14;98719.19;;;19.49;100.00
9672;BME280;4874;43.568;27.824;2022-09-03T02:59:41;98724.34;;;19.44;100.00
9672;BME280;4874;43.568;27.824;2022-09-03T03:02:10;98719.19;;;19.62;100.00
9672;BME280;4874;43.568;27.824;2022-09-03T03:04:37;98715.63;;;19.22;100.00
9672;BME280;4874;43.568;27.824;2022-09-03T03:07:05;98714.28;;;18.79;100.00
9672;BME280;4874;43.568;27.824;2022-09-03T03:09:33;98708.13;;;19.05;100.00
9672;BME280;4874;43.568;27.824;2022-09-03T03:11:59;98701.69;;;18.99;100.00
9672;BME280;4874;43.568;27.824;2022-09-03T03:14:26;98678.47;;;18.72;100.00
9672;BME280;4874;43.568;27.824;2022-09-03T03:16:53;98706.50;;;19.04;100.00
9672;BME280;4874;43.568;27.824;2022-09-03T03:19:20;98703.50;;;18.72;100.00
9672;BME280;4874;43.568;27.824;2022-09-03T03:21:46;98709.47;;;18.27;100.00
9672;BME280;4874;43.568;27.824;2022-09-03T03:24:13;98702.09;;;18.02;100.00
9672;BME280;4874;43.568;27.824;2022-09-03T03:26:40;98697.88;;;17.86;100.00
9672;BME280;4874;43.568;27.824;2022-09-03T03:29:07;98702.22;;;18.21;100.00
9672;BME280;4874;43.568;27.824;2022-09-03T03:31:39;98690.06;;;18.25;100.00
9672;BME280;4874;43.568;27.824;2022-09-03T03:34:06;98699.63;;;19.01;100.00
9672;BME280;4874;43.568;27.824;2022-09-03T03:36:33;98685.84;;;18.50;100.00
9672;BME280;4874;43.568;27.824;2022-09-03T03:39:01;98663.50;;;18.43;100.00
9672;BME280;4874;43.568;27.824;2022-09-03T03:41:32;98681.69;;;18.07;100.00
9672;BME280;4874;43.568;27.824;2022-09-03T03:44:04;98693.22;;;18.35;100.00
9672;BME280;4874;43.568;27.824;2022-09-03T03:46:39;98681.13;;;18.52;100.00
9672;BME280;4874;43.568;27.824;2022-09-03T03:49:07;98687.69;;;18.50;100.00
9672;BME280;4874;43.568;27.824;2022-09-03T03:51:35;98689.75;;;18.07;100.00
9672;BME280;4874;43.568;27.824;2022-09-03T03:54:03;98693.91;;;18.50;100.00
9672;BME280;4874;43.568;27.824;2022-09-03T03:56:31;98678.50;;;18.31;100.00
9672;BME280;4874;43.568;27.824;2022-09-03T03:58:58;98682.16;;;17.83;100.00
9672;BME280;4874;43.568;27.824;2022-09-03T04:01:26;98684.88;;;17.90;100.00
9672;BME280;4874;43.568;27.824;2022-09-03T04:03:54;98691.25;;;17.82;100.00
9672;BME280;4874;43.568;27.824;2022-09-03T04:06:22;98676.00;;;18.23;100.00
9672;BME280;4874;43.568;27.824;2022-09-03T04:08:49;98700.81;;;18.66;100.00
9672;BME280;4874;43.568;27.824;2022-09-03T04:11:18;98718.03;;;18.85;100.00
9672;BME280;4874;43.568;27.824;2022-09-03T04:13:46;98714.56;;;18.43;100.00
9672;BME280;4874;43.568;27.824;2022-09-03T04:16:18;98718.22;;;18.83;100.00
9672;BME280;4874;43.568;27.824;2022-09-03T04:18:46;98733.81;;;19.01;100.00
9672;BME280;4874;43.568;27.824;2022-09-03T04:21:20;98732.00;;;18.60;100.00
9672;BME280;4874;43.568;27.824;2022-09-03T04:23:48;98732.31;;;18.10;100.00
9672;BME280;4874;43.568;27.824;2022-09-03T04:26:18;98737.28;;;18.41;100.00
9672;BME280;4874;43.568;27.824;2022-09-03T04:28:45;98739.63;;;18.16;100.00
9672;BME280;4874;43.568;27.824;2022-09-03T04:31:14;98708.13;;;18.04;100.00
9672;BME280;4874;43.568;27.824;2022-09-03T04:33:41;98741.91;;;18.53;100.00
9672;BME280;4874;43.568;27.824;2022-09-03T04:36:14;98750.13;;;18.11;100.00
9672;BME280;4874;43.568;27.824;2022-09-03T04:38:43;98753.06;;;17.89;100.00
9672;BME280;4874;43.568;27.824;2022-09-03T04:41:13;98760.28;;;17.88;100.00
9672;BME280;4874;43.568;27.824;2022-09-03T04:43:41;98771.91;;;17.95;100.00
9672;BME280;4874;43.568;27.824;2022-09-03T04:46:10;98769.69;;;18.05;100.00
9672;BME280;4874;43.568;27.824;2022-09-03T04:48:42;98768.06;;;18.04;100.00
9672;BME280;4874;43.568;27.824;2022-09-03T04:51:10;98778.81;;;18.04;100.00
9672;BME280;4874;43.568;27.824;2022-09-03T04:53:40;98775.31;;;18.10;100.00
9672;BME280;4874;43.568;27.824;2022-09-03T04:56:12;98744.34;;;17.59;100.00
9672;BME280;4874;43.568;27.824;2022-09-03T04:58:40;98787.25;;;18.01;100.00
9672;BME280;4874;43.568;27.824;2022-09-03T05:01:14;98794.47;;;18.01;100.00
9672;BME280;4874;43.568;27.824;2022-09-03T05:03:42;98797.88;;;17.88;100.00
9672;BME280;4874;43.568;27.824;2022-09-03T05:06:09;98797.44;;;17.85;100.00
9672;BME280;4874;43.568;27.824;2022-09-03T05:08:36;98803.78;;;18.32;100.00
9672;BME280;4874;43.568;27.824;2022-09-03T05:11:07;98766.53;;;18.23;100.00
9672;BME280;4874;43.568;27.824;2022-09-03T05:13:34;98792.94;;;17.92;100.00
9672;BME280;4874;43.568;27.824;2022-09-03T05:16:07;98783.69;;;18.22;100.00
9672;BME280;4874;43.568;27.824;2022-09-03T05:18:35;98800.28;;;18.04;100.00
9672;BME280;4874;43.568;27.824;2022-09-03T05:21:10;98802.09;;;18.52;100.00
9672;BME280;4874;43.568;27.824;2022-09-03T05:23:39;98789.00;;;18.15;100.00
9672;BME280;4874;43.568;27.824;2022-09-03T05:26:09;98794.84;;;17.70;100.00
9672;BME280;4874;43.568;27.824;2022-09-03T05:28:38;98799.44;;;18.31;100.00
9672;BME280;4874;43.568;27.824;2022-09-03T05:31:13;98791.84;;;18.07;100.00
9672;BME280;4874;43.568;27.824;2022-09-03T05:33:43;98794.81;;;17.91;100.00
9672;BME280;4874;43.568;27.824;2022-09-03T05:36:12;98794.28;;;18.02;100.00
9672;BME280;4874;43.568;27.824;2022-09-03T05:38:39;98810.25;;;18.10;100.00
9672;BME280;4874;43.568;27.824;2022-09-03T05:41:08;98799.97;;;18.20;100.00
9672;BME280;4874;43.568;27.824;2022-09-03T05:43:36;98802.78;;;18.06;100.00
9672;BME280;4874;43.568;27.824;2022-09-03T05:46:05;98804.56;;;18.26;100.00
9672;BME280;4874;43.568;27.824;2022-09-03T05:48:33;98799.41;;;18.52;100.00
9672;BME280;4874;43.568;27.824;2022-09-03T05:51:09;98788.69;;;17.76;100.00
9672;BME280;4874;43.568;27.824;2022-09-03T05:53:38;98809.31;;;17.97;100.00
9672;BME280;4874;43.568;27.824;2022-09-03T05:56:08;98820.66;;;17.71;100.00
9672;BME280;4874;43.568;27.824;2022-09-03T05:58:40;98817.88;;;17.43;100.00
9672;BME280;4874;43.568;27.824;2022-09-03T06:01:16;98816.72;;;17.31;100.00
9672;BME280;4874;43.568;27.824;2022-09-03T06:03:45;98815.19;;;17.58;100.00
9672;BME280;4874;43.568;27.824;2022-09-03T06:06:13;98823.09;;;17.09;100.00
9672;BME280;4874;43.568;27.824;2022-09-03T06:08:40;98820.13;;;17.40;100.00
9672;BME280;4874;43.568;27.824;2022-09-03T06:11:07;98816.97;;;17.72;100.00
9672;BME280;4874;43.568;27.824;2022-09-03T06:13:34;98772.63;;;17.55;100.00
9672;BME280;4874;43.568;27.824;2022-09-03T06:16:04;98816.88;;;17.87;100.00
9672;BME280;4874;43.568;27.824;2022-09-03T06:18:32;98834.72;;;17.52;100.00
9672;BME280;4874;43.568;27.824;2022-09-03T06:21:01;98831.53;;;17.63;100.00
9672;BME280;4874;43.568;27.824;2022-09-03T06:23:29;98824.78;;;17.31;100.00
9672;BME280;4874;43.568;27.824;2022-09-03T06:26:07;98838.06;;;17.75;100.00
9672;BME280;4874;43.568;27.824;2022-09-03T06:28:36;98829.09;;;17.47;100.00
9672;BME280;4874;43.568;27.824;2022-09-03T06:31:06;98842.16;;;17.71;100.00
9672;BME280;4874;43.568;27.824;2022-09-03T06:33:35;98829.00;;;17.40;100.00
9672;BME280;4874;43.568;27.824;2022-09-03T06:36:05;98833.53;;;17.40;100.00
9672;BME280;4874;43.568;27.824;2022-09-03T06:38:35;98839.59;;;17.63;100.00
9672;BME280;4874;43.568;27.824;2022-09-03T06:41:08;98838.28;;;17.38;100.00
9672;BME280;4874;43.568;27.824;2022-09-03T06:43:37;98826.03;;;18.20;100.00
9672;BME280;4874;43.568;27.824;2022-09-03T06:46:07;98840.28;;;17.50;100.00
9672;BME280;4874;43.568;27.824;2022-09-03T06:48:36;98848.59;;;17.55;100.00
9672;BME280;4874;43.568;27.824;2022-09-03T06:51:05;98841.31;;;17.92;100.00
9672;BME280;4874;43.568;27.824;2022-09-03T06:53:35;98850.25;;;18.26;100.00
9672;BME280;4874;43.568;27.824;2022-09-03T06:56:04;98845.06;;;17.97;100.00
9672;BME280;4874;43.568;27.824;2022-09-03T06:58:41;98851.34;;;18.32;100.00
9672;BME280;4874;43.568;27.824;2022-09-03T07:01:14;98862.28;;;18.03;100.00
9672;BME280;4874;43.568;27.824;2022-09-03T07:03:43;98860.75;;;17.37;100.00
9672;BME280;4874;43.568;27.824;2022-09-03T07:06:15;98878.72;;;17.51;100.00
9672;BME280;4874;43.568;27.824;2022-09-03T07:08:44;98886.69;;;17.66;100.00
9672;BME280;4874;43.568;27.824;2022-09-03T07:11:16;98883.63;;;17.47;100.00
9672;BME280;4874;43.568;27.824;2022-09-03T07:13:47;98882.16;;;17.30;100.00
9672;BME280;4874;43.568;27.824;2022-09-03T07:16:17;98869.94;;;17.28;100.00
9672;BME280;4874;43.568;27.824;2022-09-03T07:18:45;98883.63;;;17.47;100.00
9672;BME280;4874;43.568;27.824;2022-09-03T07:21:17;98885.88;;;17.29;100.00
9672;BME280;4874;43.568;27.824;2022-09-03T07:23:45;98887.47;;;17.59;100.00
9672;BME280;4874;43.568;27.824;2022-09-03T07:26:14;98884.34;;;17.41;100.00
9672;BME280;4874;43.568;27.824;2022-09-03T07:28:42;98894.75;;;17.30;100.00
9672;BME280;4874;43.568;27.824;2022-09-03T07:31:24;98897.81;;;17.27;100.00
9672;BME280;4874;43.568;27.824;2022-09-03T07:33:56;98897.72;;;17.20;100.00
9672;BME280;4874;43.568;27.824;2022-09-03T07:36:25;98893.56;;;17.68;100.00
9672;BME280;4874;43.568;27.824;2022-09-03T07:38:57;98903.25;;;17.33;100.00
9672;BME280;4874;43.568;27.824;2022-09-03T07:41:25;98911.06;;;17.64;100.00
9672;BME280;4874;43.568;27.824;2022-09-03T07:43:54;98918.28;;;17.85;100.00
9672;BME280;4874;43.568;27.824;2022-09-03T07:46:24;98910.50;;;17.18;100.00
9672;BME280;4874;43.568;27.824;2022-09-03T07:48:55;98905.00;;;17.41;100.00
9672;BME280;4874;43.568;27.824;2022-09-03T07:51:24;98903.97;;;17.42;100.00
9672;BME280;4874;43.568;27.824;2022-09-03T07:53:54;98917.31;;;17.35;100.00
9672;BME280;4874;43.568;27.824;2022-09-03T07:56:21;98890.00;;;16.82;100.00
9672;BME280;4874;43.568;27.824;2022-09-03T07:58:49;98910.59;;;16.96;100.00
9672;BME280;4874;43.568;27.824;2022-09-03T08:01:18;98916.13;;;17.23;100.00
9672;BME280;4874;43.568;27.824;2022-09-03T08:03:47;98909.66;;;17.18;100.00
9672;BME280;4874;43.568;27.824;2022-09-03T08:06:16;98908.84;;;17.17;100.00
9672;BME280;4874;43.568;27.824;2022-09-03T08:08:43;98909.84;;;17.31;100.00
9672;BME280;4874;43.568;27.824;2022-09-03T08:11:18;98917.00;;;17.45;100.00
9672;BME280;4874;43.568;27.824;2022-09-03T08:13:56;98877.41;;;16.82;100.00
9672;BME280;4874;43.568;27.824;2022-09-03T08:16:28;98919.00;;;17.07;100.00
9672;BME280;4874;43.568;27.824;2022-09-03T08:18:56;98865.69;;;16.54;100.00
9672;BME280;4874;43.568;27.824;2022-09-03T08:21:23;98932.59;;;17.06;100.00
9672;BME280;4874;43.568;27.824;2022-09-03T08:23:52;98921.53;;;16.94;100.00
9672;BME280;4874;43.568;27.824;2022-09-03T08:26:20;98915.41;;;16.86;100.00
9672;BME280;4874;43.568;27.824;2022-09-03T08:28:48;98905.38;;;17.38;100.00
9672;BME280;4874;43.568;27.824;2022-09-03T08:31:19;98916.78;;;17.11;100.00
9672;BME280;4874;43.568;27.824;2022-09-03T08:33:49;98923.72;;;17.20;100.00
9672;BME280;4874;43.568;27.824;2022-09-03T08:36:22;98930.66;;;17.29;100.00
9672;BME280;4874;43.568;27.824;2022-09-03T08:38:49;98945.44;;;17.39;100.00
9672;BME280;4874;43.568;27.824;2022-09-03T08:46:20;98892.59;;;16.90;100.00
9672;BME280;4874;43.568;27.824;2022-09-03T08:48:52;98929.63;;;18.01;100.00
9672;BME280;4874;43.568;27.824;2022-09-03T08:51:22;98928.75;;;17.44;100.00
9672;BME280;4874;43.568;27.824;2022-09-03T08:53:50;98922.88;;;17.19;100.00
9672;BME280;4874;43.568;27.824;2022-09-03T08:56:29;98918.81;;;17.23;100.00
9672;BME280;4874;43.568;27.824;2022-09-03T08:58:56;98929.09;;;16.91;100.00
9672;BME280;4874;43.568;27.824;2022-09-03T09:01:33;98938.47;;;17.45;100.00
9672;BME280;4874;43.568;27.824;2022-09-03T09:06:58;98924.03;;;17.60;100.00
9672;BME280;4874;43.568;27.824;2022-09-03T09:12:13;98929.94;;;17.20;100.00
9672;BME280;4874;43.568;27.824;2022-09-03T09:23:34;98928.69;;;17.37;100.00
9672;BME280;4874;43.568;27.824;2022-09-03T09:26:07;98944.59;;;17.39;100.00
9672;BME280;4874;43.568;27.824;2022-09-03T09:28:37;98951.91;;;17.59;100.00
9672;BME280;4874;43.568;27.824;2022-09-03T09:31:10;98938.56;;;18.29;100.00
9672;BME280;4874;43.568;27.824;2022-09-03T09:33:41;98945.81;;;18.08;100.00
9672;BME280;4874;43.568;27.824;2022-09-03T09:36:11;98943.22;;;17.28;100.00
9672;BME280;4874;43.568;27.824;2022-09-03T09:38:42;98952.56;;;17.47;100.00
9672;BME280;4874;43.568;27.824;2022-09-03T09:41:15;98965.97;;;17.83;100.00
9672;BME280;4874;43.568;27.824;2022-09-03T09:43:45;98928.72;;;17.94;100.00
9672;BME280;4874;43.568;27.824;2022-09-03T09:46:20;98969.47;;;18.40;100.00
9672;BME280;4874;43.568;27.824;2022-09-03T09:48:50;98977.78;;;18.03;100.00
9672;BME280;4874;43.568;27.824;2022-09-03T09:51:24;98981.09;;;18.26;100.00
9672;BME280;4874;43.568;27.824;2022-09-03T09:56:27;98985.50;;;17.91;100.00
9672;BME280;4874;43.568;27.824;2022-09-03T09:59:08;98981.94;;;17.84;100.00
9672;BME280;4874;43.568;27.824;2022-09-03T10:01:40;98986.75;;;17.74;100.00
9672;BME280;4874;43.568;27.824;2022-09-03T10:06:53;98998.53;;;18.30;100.00
9672;BME280;4874;43.568;27.824;2022-09-03T10:09:27;98992.44;;;18.21;100.00
9672;BME280;4874;43.568;27.824;2022-09-03T10:12:13;98999.50;;;18.43;100.00
9672;BME280;4874;43.568;27.824;2022-09-03T10:17:56;98982.13;;;18.04;100.00
9672;BME280;4874;43.568;27.824;2022-09-03T10:23:26;98986.16;;;18.14;100.00
9672;BME280;4874;43.568;27.824;2022-09-03T10:28:39;98954.81;;;18.00;100.00
9672;BME280;4874;43.568;27.824;2022-09-03T10:33:55;98986.41;;;18.19;100.00
9672;BME280;4874;43.568;27.824;2022-09-03T10:36:31;98952.50;;;17.76;100.00
9672;BME280;4874;43.568;27.824;2022-09-03T10:39:21;98993.06;;;18.02;100.00
9672;BME280;4874;43.568;27.824;2022-09-03T10:48:02;99002.25;;;17.93;100.00
9672;BME280;4874;43.568;27.824;2022-09-03T10:50:55;99013.25;;;18.34;100.00
9672;BME280;4874;43.568;27.824;2022-09-03T10:56:00;99001.97;;;18.94;100.00
9672;BME280;4874;43.568;27.824;2022-09-03T10:59:09;98996.72;;;19.13;100.00
9672;BME280;4874;43.568;27.824;2022-09-03T11:01:50;98984.97;;;19.21;100.00
9672;BME280;4874;43.568;27.824;2022-09-03T11:07:13;99002.47;;;19.85;100.00
9672;BME280;4874;43.568;27.824;2022-09-03T11:09:47;99003.41;;;19.24;100.00
9672;BME280;4874;43.568;27.824;2022-09-03T11:12:25;98977.78;;;19.81;100.00
9672;BME280;4874;43.568;27.824;2022-09-03T11:15:10;99003.56;;;19.16;100.00
9672;BME280;4874;43.568;27.824;2022-09-03T11:17:47;98959.63;;;20.10;100.00
9672;BME280;4874;43.568;27.824;2022-09-03T11:20:21;98965.28;;;18.58;100.00
9672;BME280;4874;43.568;27.824;2022-09-03T11:22:50;98992.66;;;20.18;100.00
9672;BME280;4874;43.568;27.824;2022-09-03T11:25:20;98996.56;;;19.21;100.00
9672;BME280;4874;43.568;27.824;2022-09-03T11:28:28;98996.53;;;20.03;100.00
9672;BME280;4874;43.568;27.824;2022-09-03T11:33:48;98999.22;;;20.09;100.00
9672;BME280;4874;43.568;27.824;2022-09-03T11:36:42;99011.72;;;20.23;100.00
9672;BME280;4874;43.568;27.824;2022-09-03T11:39:23;99006.81;;;20.59;100.00
9672;BME280;4874;43.568;27.824;2022-09-03T11:42:00;98992.47;;;20.78;100.00
9672;BME280;4874;43.568;27.824;2022-09-03T11:44:40;98976.75;;;19.01;100.00
9672;BME280;4874;43.568;27.824;2022-09-03T11:49:50;99003.28;;;19.79;100.00
9672;BME280;4874;43.568;27.824;2022-09-03T11:52:29;98986.53;;;18.32;100.00
9672;BME280;4874;43.568;27.824;2022-09-03T11:54:57;99026.88;;;18.53;100.00
9672;BME280;4874;43.568;27.824;2022-09-03T11:57:29;99024.16;;;18.32;100.00
9672;BME280;4874;43.568;27.824;2022-09-03T12:00:09;98988.31;;;18.40;100.00
9672;BME280;4874;43.568;27.824;2022-09-03T12:02:44;99037.53;;;18.05;100.00
9672;BME280;4874;43.568;27.824;2022-09-03T12:05:40;99040.91;;;17.92;100.00
9672;BME280;4874;43.568;27.824;2022-09-03T12:18:46;99043.91;;;17.68;100.00
9672;BME280;4874;43.568;27.824;2022-09-03T12:21:18;99056.59;;;18.10;100.00
9672;BME280;4874;43.568;27.824;2022-09-03T12:23:48;99061.66;;;17.84;100.00
9672;BME280;4874;43.568;27.824;2022-09-03T12:26:20;99049.81;;;17.78;100.00
9672;BME280;4874;43.568;27.824;2022-09-03T12:28:52;99049.97;;;17.91;100.00
9672;BME280;4874;43.568;27.824;2022-09-03T12:31:28;99059.00;;;17.54;100.00
9672;BME280;4874;43.568;27.824;2022-09-03T12:34:02;99053.06;;;17.74;100.00
9672;BME280;4874;43.568;27.824;2022-09-03T12:36:41;99058.97;;;18.19;100.00
9672;BME280;4874;43.568;27.824;2022-09-03T12:42:06;99062.53;;;18.05;100.00
9672;BME280;4874;43.568;27.824;2022-09-03T12:47:09;99058.72;;;17.64;100.00
9672;BME280;4874;43.568;27.824;2022-09-03T12:49:57;99030.00;;;17.06;100.00
9672;BME280;4874;43.568;27.824;2022-09-03T13:00:44;99080.38;;;17.77;100.00
9672;BME280;4874;43.568;27.824;2022-09-03T13:05:53;99073.97;;;17.20;100.00
9672;BME280;4874;43.568;27.824;2022-09-03T13:08:25;99071.09;;;17.07;100.00
9672;BME280;4874;43.568;27.824;2022-09-03T13:10:56;99076.56;;;17.42;100.00
9672;BME280;4874;43.568;27.824;2022-09-03T13:13:32;99065.69;;;17.58;100.00
9672;BME280;4874;43.568;27.824;2022-09-03T13:16:30;99075.38;;;17.74;100.00
9672;BME280;4874;43.568;27.824;2022-09-03T13:19:24;99079.28;;;17.57;100.00
9672;BME280;4874;43.568;27.824;2022-09-03T13:30:12;99096.53;;;17.25;100.00
9672;BME280;4874;43.568;27.824;2022-09-03T13:33:25;99096.53;;;17.98;100.00
9672;BME280;4874;43.568;27.824;2022-09-03T13:36:08;99086.31;;;17.58;100.00
9672;BME280;4874;43.568;27.824;2022-09-03T13:44:15;99045.09;;;17.22;100.00
9672;BME280;4874;43.568;27.824;2022-09-03T13:46:53;99074.06;;;17.99;100.00
9672;BME280;4874;43.568;27.824;2022-09-03T13:49:35;99084.06;;;17.76;100.00
9672;BME280;4874;43.568;27.824;2022-09-03T13:55:05;99092.97;;;16.96;100.00
9672;BME280;4874;43.568;27.824;2022-09-03T14:00:45;99093.63;;;16.98;100.00
9672;BME280;4874;43.568;27.824;2022-09-03T14:03:35;99094.06;;;16.87;100.00
9672;BME280;4874;43.568;27.824;2022-09-03T14:09:14;99094.06;;;16.87;100.00
9672;BME280;4874;43.568;27.824;2022-09-03T14:20:12;99042.50;;;17.14;100.00
9672;BME280;4874;43.568;27.824;2022-09-03T14:22:55;99105.06;;;17.29;100.00
9672;BME280;4874;43.568;27.824;2022-09-03T14:25:26;99107.47;;;16.87;100.00
9672;BME280;4874;43.568;27.824;2022-09-03T14:27:54;99097.97;;;16.62;100.00
9672;BME280;4874;43.568;27.824;2022-09-03T14:30:39;99112.00;;;16.86;100.00
9672;BME280;4874;43.568;27.824;2022-09-03T14:33:12;99120.94;;;17.16;100.00
9672;BME280;4874;43.568;27.824;2022-09-03T14:47:25;99138.38;;;17.34;100.00
9672;BME280;4874;43.568;27.824;2022-09-03T14:50:12;99129.91;;;17.89;100.00
9672;BME280;4874;43.568;27.824;2022-09-03T15:01:03;99130.16;;;16.99;100.00
9672;BME280;4874;43.568;27.824;2022-09-03T15:12:00;99132.50;;;17.53;100.00
9672;BME280;4874;43.568;27.824;2022-09-03T15:14:56;99125.38;;;17.60;100.00
9672;BME280;4874;43.568;27.824;2022-09-03T15:23:22;99141.84;;;17.57;100.00
9672;BME280;4874;43.568;27.824;2022-09-03T15:36:50;99137.19;;;17.37;100.00
9672;BME280;4874;43.568;27.824;2022-09-03T15:39:24;99142.81;;;17.42;100.00
9672;BME280;4874;43.568;27.824;2022-09-03T15:41:58;99150.75;;;17.58;100.00
9672;BME280;4874;43.568;27.824;2022-09-03T15:44:35;99154.22;;;17.44;100.00
9672;BME280;4874;43.568;27.824;2022-09-03T15:47:10;99153.78;;;17.18;100.00
9672;BME280;4874;43.568;27.824;2022-09-03T15:49:59;99166.69;;;17.37;100.00
9672;BME280;4874;43.568;27.824;2022-09-03T15:52:31;99161.50;;;17.35;100.00
9672;BME280;4874;43.568;27.824;2022-09-03T15:55:12;99158.81;;;17.87;100.00
9672;BME280;4874;43.568;27.824;2022-09-03T15:58:13;99170.03;;;17.39;100.00
9672;BME280;4874;43.568;27.824;2022-09-03T16:03:12;99170.47;;;17.65;100.00
9672;BME280;4874;43.568;27.824;2022-09-03T16:06:01;99178.50;;;17.50;100.00
9672;BME280;4874;43.568;27.824;2022-09-03T16:08:45;99178.19;;;17.08;100.00
9672;BME280;4874;43.568;27.824;2022-09-03T16:11:31;99173.31;;;17.49;100.00
9672;BME280;4874;43.568;27.824;2022-09-03T16:16:59;99142.16;;;17.40;100.00
9672;BME280;4874;43.568;27.824;2022-09-03T16:19:53;99198.81;;;17.08;100.00
9672;BME280;4874;43.568;27.824;2022-09-03T16:25:30;99189.63;;;17.25;100.00
9672;BME280;4874;43.568;27.824;2022-09-03T16:28:04;99190.81;;;17.22;100.00
9672;BME280;4874;43.568;27.824;2022-09-03T16:52:37;99208.47;;;17.17;100.00
9672;BME280;4874;43.568;27.824;2022-09-03T17:01:27;99220.72;;;16.66;100.00
9672;BME280;4874;43.568;27.824;2022-09-03T17:06:11;99235.72;;;17.28;100.00
9672;BME280;4874;43.568;27.824;2022-09-03T17:20:14;99248.63;;;17.02;100.00
9672;BME280;4874;43.568;27.824;2022-09-03T17:25:46;99253.53;;;17.67;100.00
9672;BME280;4874;43.568;27.824;2022-09-03T17:31:14;99268.78;;;17.21;100.00
9672;BME280;4874;43.568;27.824;2022-09-03T17:37:22;99282.69;;;18.21;100.00
9672;BME280;4874;43.568;27.824;2022-09-03T17:40:26;99283.97;;;18.25;100.00
9672;BME280;4874;43.568;27.824;2022-09-03T17:48:45;99294.94;;;17.72;100.00
9672;BME280;4874;43.568;27.824;2022-09-03T17:54:20;99300.91;;;16.84;100.00
9672;BME280;4874;43.568;27.824;2022-09-03T17:59:43;99301.94;;;16.75;100.00
9672;BME280;4874;43.568;27.824;2022-09-03T18:02:23;99315.22;;;16.68;100.00
9672;BME280;4874;43.568;27.824;2022-09-03T18:05:23;99309.59;;;16.55;100.00
9672;BME280;4874;43.568;27.824;2022-09-03T18:07:59;99321.81;;;17.41;100.00
9672;BME280;4874;43.568;27.824;2022-09-03T18:10:38;99328.84;;;16.89;100.00
9672;BME280;4874;43.568;27.824;2022-09-03T18:13:45;99320.13;;;17.18;100.00